AirNav   Air Wisconsin pilot careers
 
 723 users online  

08M Carthage-Leake County Airport
Carthage, Mississippi, USA


FAA INFORMATION EFFECTIVE 09 NOVEMBER 2017

Location

FAA Identifier: 08M
Lat/Long: 32-45-41.7000N / 089-31-49.4000W
32-45.695000N / 089-31.823333W
32.7615833 / -89.5303889
(estimated)
Elevation: 457 ft. / 139 m (estimated)
Variation: 02E (1985)
From city: 2 miles N of CARTHAGE, MS
Time zone: UTC -6 (UTC -5 during Daylight Saving Time)
Zip code: 39051

Airport Operations

Airport use: Open to the public
Activation date: 02/1964
Control tower: no
ARTCC: MEMPHIS CENTER
FSS: GREENWOOD FLIGHT SERVICE STATION
NOTAMs facility: GWO (NOTAM-D service available)
Attendance: UNATNDD
Wind indicator: lighted
Segmented circle: yes
Lights: DUSK-2200. AFTER 2200 ACTVT MIRL RY 17/35 - CTAF.
Beacon: white-green (lighted land airport)
Operates sunset to sunrise.

Airport Communications

CTAF: 122.9

Nearby radio navigation aids

VOR radial/distance  VOR name  Freq  Var
MHZr057/34.8MAGNOLIA VORTAC113.2001W

Airport Services

Fuel available: 100LL
FUEL AVAIL 24/7 WITH CC.
Parking: tiedowns
Airframe service: NONE
Powerplant service: NONE
Bottled oxygen: NONE
Bulk oxygen: NONE

Runway Information

Runway 17/35

Dimensions: 3000 x 75 ft. / 914 x 23 m
Surface: asphalt, in excellent condition
Weight bearing capacity: 
Single wheel: 20.0
Runway edge lights: medium intensity
RUNWAY 17  RUNWAY 35
Latitude: 32-45.941613N32-45.448365N
Longitude: 089-31.845990W089-31.799015W
Elevation: 457.0 ft.445.0 ft.
Gradient: 0.1%0.1%
Traffic pattern: leftleft
Runway heading: 173 magnetic, 175 true353 magnetic, 355 true
Markings: nonprecision, in fair conditionnonprecision, in fair condition
Obstructions: 24 ft. trees, 930 ft. from runway, 200 ft. left of centerline, 30:1 slope to clear39 ft. tree, 1125 ft. from runway, 300 ft. right of centerline, 23:1 slope to clear

Airport Ownership and Management from official FAA records

Ownership: Publicly-owned
Owner: CITY OF CARTHAGE
212 MAIN ST
CARTHAGE, MS 39051
Phone 601-267-8322
JIMMY WALLACE, MAYOR.
Manager: TONY GORDON
212 MAIN ST
CARTHAGE, MS 39051
Phone 601-267-9327
CHAIRMAN OF AIRPORT ADVISORY COMMITTEE.

Airport Operational Statistics

Aircraft based on the field: 10
Single engine airplanes: 10
    
Aircraft operations: avg 88/week *
61% local general aviation
39% transient general aviation
* for 12-month period ending 13 February 2017

Instrument Procedures

There are no published instrument procedures at 08M.

Some nearby airports with instrument procedures:

KOSX - Kosciusko-Attala County Airport (20 nm N)
KMPE - Philadelphia Municipal Airport (21 nm E)
KLMS - Louisville Winston County Airport (33 nm NE)
19M - C A Moore Airport (33 nm NW)
KMBO - Bruce Campbell Field Airport (35 nm SW)
 
Loc | Ops | Rwys | IFR | FBO | Links
Com | Nav | Svcs | Stats | Notes


 
Area around 08M (Carthage-Leake County Airport)
 
Road maps at: MapQuest Bing Google
 
Aerial photo
WARNING: Photo may not be current or correct
Aerial photo of 08M (Carthage-Leake County Airport)
Do you have a better or more recent aerial photo of Carthage-Leake County Airport that you would like to share? If so, please send us your photo.

 
Sectional chart

 
Airport distance calculator
Flying to Carthage-Leake County Airport? Find the distance to fly.

From to 08M

Sunrise and sunset
Times for 23-Nov-2017
 Local
(UTC-6)
 Zulu
(UTC)
Morning civil twilight06:1012:10
Sunrise06:3712:37
Sunset16:5322:53
Evening civil twilight17:1923:19

Current date and time
Zulu (UTC)  23-Nov-2017 18:08:57
Local (UTC-6)  23-Nov-2017 12:08:57
 
METAR
KMBO 
35nm SW 
231755Z AUTO 33003KT 10SM CLR 11/M03 A3011 RMK AO2
KJAN 
39nm SW 
231754Z 04010KT 10SM CLR 13/M03 A3011 RMK AO2 SLP196 T01281033 10128 21011 58019
KHKS 
43nm SW 
231753Z VRB05KT 10SM CLR 12/M03 A3012 RMK AO2 SLP195 T01171028 10117 21022 58019
K5A6 
43nm N 
231755Z AUTO 01005KT 10SM CLR 11/M04 A3013 RMK AO2 T01051038 10105 21038
KMEI 
47nm SE 
231758Z 33008KT 10SM CLR 14/M02 A3007 RMK AO2 SLP182 T01441022 10144 21017 58023
TAF
KJAN 
39nm SW 
231738Z 2318/2418 35007KT P6SM SKC FM240000 00000KT P6SM SKC
KHKS 
43nm SW 
231738Z 2318/2418 35006KT P6SM SKC FM240000 00000KT P6SM SKC
KMEI 
47nm SE 
231738Z 2318/2418 36006KT P6SM SKC FM240000 00000KT P6SM SKC
NOTAMs
Click for the latest NOTAMs
NOTAMs are issued by the DoD/FAA and will open in a separate window not controlled by AirNav.

 

 
 

FBO, Fuel Providers, and Aircraft Ground Support

  
 Business Name 
 
 Contact 
 
 Services / Description 
 
Fuel Prices
 
Comments
  
Carthage-Leake County Airport 601-267-9327
no information available

If you are affiliated with Carthage-Leake County Airport and would like to show here your services, contact info, web link, logo, and more, click here
100LL
AS $3.95 
 Updated 20-Nov-2017
 
   write
AS=Assisted/Self Service
Update Fuel Prices
 

Would you like to see your business listed on this page?

 If your business provides an interesting product or service to pilots, flight crews, aircraft, or users of the Carthage-Leake County Airport, you should consider listing it here.  To start the listing process, click on the button below
 
Add a business
 

Other Pages about Carthage-Leake County Airport

Update a link
 
Copyright © AirNav, LLC. All rights reserved. Privacy Policy  Contact